Time;durP1;ratioP1;P1;durP2;ratioP2;P2;SDS_P1;SDS_P2;PMS_P1;PMS_P2;Temp;Humidity;BMP_temperature;BMP_pressure;BME280_temperature;BME280_humidity;BME280_pressure;Samples;Min_cycle;Max_cycle;Signal;HPM_P1;HPM_P2
2022/09/10 00:01:43;;;;;;;6.28;3.25;;;;;;;;;;2534737;53;21081;-80
2022/09/10 00:04:11;;;;;;;3.85;2.53;;;;;;;;;;2298470;58;21176;-80
2022/09/10 00:06:38;;;;;;;4.70;3.05;;;;;;;;;;2298334;58;21117;-80
2022/09/10 00:09:06;;;;;;;3.42;2.70;;;;;;;;;;2298280;58;21669;-81
2022/09/10 00:11:34;;;;;;;5.28;2.80;;;;;;;;;;2298369;58;21098;-80
2022/09/10 00:14:02;;;;;;;3.60;2.70;;;;;;;;;;2298440;58;21062;-80
2022/09/10 00:16:30;;;;;;;3.25;2.62;;;;;;;;;;2298140;58;21042;-80
2022/09/10 00:18:57;;;;;;;8.00;2.72;;;;;;;;;;2298344;58;21130;-80
2022/09/10 00:21:24;;;;;;;4.57;2.75;;;;;;;;;;2298374;58;21106;-82
2022/09/10 00:23:51;;;;;;;4.55;2.33;;;;;;;;;;2298422;58;21035;-80
2022/09/10 00:26:20;;;;;;;4.90;3.03;;;;;;;;;;2298882;58;21042;-81
2022/09/10 00:28:47;;;;;;;4.15;2.62;;;;;;;;;;2299244;58;21092;-82
2022/09/10 00:31:15;;;;;;;2.45;2.25;;;;;;;;;;2299456;58;21054;-83
2022/09/10 00:33:42;;;;;;;4.95;2.45;;;;;;;;;;2299345;58;21110;-81
2022/09/10 00:36:16;;;;;;;3.65;2.55;;;;;;;;;;2535644;54;21046;-84
2022/09/10 00:38:43;;;;;;;3.17;2.42;;;;;;;;;;2298990;58;21055;-82
2022/09/10 00:41:10;;;;;;;6.47;2.95;;;;;;;;;;2299260;58;21058;-81
2022/09/10 00:43:48;;;;;;;3.87;2.12;;;;;;;;;;2299167;58;21102;-83
2022/09/10 00:46:16;;;;;;;3.55;2.55;;;;;;;;;;2298824;58;21054;-81
2022/09/10 00:48:43;;;;;;;5.30;2.65;;;;;;;;;;2299182;58;21047;-83
2022/09/10 00:51:10;;;;;;;3.05;2.40;;;;;;;;;;2299078;58;21050;-81
2022/09/10 00:53:37;;;;;;;3.72;2.70;;;;;;;;;;2535837;54;21042;-82
2022/09/10 00:56:05;;;;;;;4.62;3.08;;;;;;;;;;2298810;58;21042;-82
2022/09/10 00:58:32;;;;;;;4.97;2.90;;;;;;;;;;2299202;58;21609;-81
2022/09/10 01:00:59;;;;;;;3.53;2.75;;;;;;;;;;2299090;58;21058;-81
2022/09/10 01:03:28;;;;;;;3.42;2.60;;;;;;;;;;2535698;54;21534;-84
2022/09/10 01:05:57;;;;;;;4.68;2.83;;;;;;;;;;2298933;58;21066;-81
2022/09/10 01:08:24;;;;;;;3.67;2.75;;;;;;;;;;2299214;58;21113;-81
2022/09/10 01:11:00;;;;;;;4.03;2.50;;;;;;;;;;2299307;58;21030;-82
2022/09/10 01:13:37;;;;;;;2.60;2.37;;;;;;;;;;2535831;54;21035;-81
2022/09/10 01:16:08;;;;;;;3.85;2.45;;;;;;;;;;2298876;58;21594;-82
2022/09/10 01:18:42;;;;;;;4.87;3.20;;;;;;;;;;2299094;58;21059;-82
2022/09/10 01:21:08;;;;;;;;;;;;;;;;;;2335737;53;21539;-81
2022/09/10 01:23:50;;;;;;;3.67;2.72;;;;;;;;;;2382781;56;20053;-80
2022/09/10 01:26:24;;;;;;;3.03;2.72;;;;;;;;;;2637452;52;21070;-80
2022/09/10 01:28:58;;;;;;;2.95;2.65;;;;;;;;;;2382607;56;21066;-80
2022/09/10 01:31:28;;;;;;;5.12;2.42;;;;;;;;;;2382788;56;21507;-80
2022/09/10 01:33:57;;;;;;;3.22;2.30;;;;;;;;;;2382813;56;21038;-81
2022/09/10 01:36:28;;;;;;;5.82;3.33;;;;;;;;;;2382446;56;21035;-80
2022/09/10 01:38:56;;;;;;;6.93;3.00;;;;;;;;;;2637681;52;21034;-80
2022/09/10 01:41:24;;;;;;;3.45;2.58;;;;;;;;;;2382929;56;21034;-80
2022/09/10 01:43:51;;;;;;;3.90;2.47;;;;;;;;;;2637808;52;21014;-81
2022/09/10 01:46:26;;;;;;;3.85;2.62;;;;;;;;;;2382295;56;21022;-80
2022/09/10 01:48:59;;;;;;;4.32;3.10;;;;;;;;;;2382725;56;21204;-81
2022/09/10 01:51:25;;;;;;;;;;;;;;;;;;2641621;52;21019;-82
2022/09/10 01:53:59;;;;;;;3.60;2.75;;;;;;;;;;2637707;52;20069;-81
2022/09/10 01:56:25;;;;;;;;;;;;;;;;;;2385878;56;21038;-80
2022/09/10 01:58:55;;;;;;;5.07;2.90;;;;;;;;;;2382536;56;20065;-83
2022/09/10 02:01:25;;;;;;;4.37;2.35;;;;;;;;;;2382559;56;21035;-80
2022/09/10 02:03:55;;;;;;;3.00;2.22;;;;;;;;;;2382780;56;21026;-82
2022/09/10 02:06:25;;;;;;;4.28;2.70;;;;;;;;;;2382267;56;21129;-80
2022/09/10 02:08:52;;;;;;;3.25;2.17;;;;;;;;;;2382755;56;21026;-80
2022/09/10 02:11:20;;;;;;;3.75;2.40;;;;;;;;;;2382571;56;21014;-80
2022/09/10 02:13:47;;;;;;;3.42;2.58;;;;;;;;;;2382748;56;21046;-82
2022/09/10 02:16:16;;;;;;;3.10;2.42;;;;;;;;;;2382139;56;21027;-80
2022/09/10 02:18:44;;;;;;;4.80;2.67;;;;;;;;;;2637630;52;21106;-80
2022/09/10 02:21:11;;;;;;;4.45;3.03;;;;;;;;;;2382464;56;21031;-80
2022/09/10 02:23:41;;;;;;;3.30;2.70;;;;;;;;;;2382718;56;21089;-80
2022/09/10 02:26:08;;;;;;;4.28;3.20;;;;;;;;;;2382213;56;21034;-81
2022/09/10 02:28:35;;;;;;;3.37;2.83;;;;;;;;;;2382800;56;21026;-80
2022/09/10 02:31:02;;;;;;;3.47;2.92;;;;;;;;;;2382483;56;21077;-81
2022/09/10 02:33:30;;;;;;;2.42;2.10;;;;;;;;;;2637463;52;21081;-80
2022/09/10 02:35:56;;;;;;;3.62;2.85;;;;;;;;;;2382166;56;21022;-80
2022/09/10 02:38:23;;;;;;;7.47;2.70;;;;;;;;;;2382412;56;21602;-80
2022/09/10 02:40:50;;;;;;;3.97;2.50;;;;;;;;;;2382474;56;21034;-80
2022/09/10 02:43:17;;;;;;;3.08;2.72;;;;;;;;;;2382439;56;21643;-79
2022/09/10 02:45:44;;;;;;;4.78;2.92;;;;;;;;;;2381909;56;21022;-80
2022/09/10 02:48:11;;;;;;;5.62;3.08;;;;;;;;;;2383327;56;21030;-81
2022/09/10 02:50:38;;;;;;;3.83;2.62;;;;;;;;;;2383046;56;21042;-81
2022/09/10 02:53:06;;;;;;;4.93;3.42;;;;;;;;;;2383165;56;21515;-81
2022/09/10 02:55:32;;;;;;;5.82;3.00;;;;;;;;;;2382866;56;21030;-80
2022/09/10 02:57:59;;;;;;;6.68;3.30;;;;;;;;;;2383306;56;21030;-81
2022/09/10 03:00:26;;;;;;;3.20;2.70;;;;;;;;;;2383241;56;21065;-82
2022/09/10 03:02:55;;;;;;;2.65;2.30;;;;;;;;;;2383222;56;21145;-81
2022/09/10 03:05:22;;;;;;;2.30;2.10;;;;;;;;;;2637996;52;21030;-81
2022/09/10 03:07:49;;;;;;;3.40;2.67;;;;;;;;;;2638297;52;21003;-82
2022/09/10 03:10:16;;;;;;;5.57;3.03;;;;;;;;;;2383066;56;21022;-81
2022/09/10 03:12:44;;;;;;;3.53;2.70;;;;;;;;;;2383065;56;21034;-83
2022/09/10 03:15:12;;;;;;;3.25;2.67;;;;;;;;;;2383088;56;21034;-81
2022/09/10 03:17:39;;;;;;;4.55;2.75;;;;;;;;;;2382881;56;21518;-80
2022/09/10 03:20:07;;;;;;;4.35;3.10;;;;;;;;;;2383142;56;21089;-82
2022/09/10 03:22:34;;;;;;;3.12;2.83;;;;;;;;;;2383074;56;21605;-82
2022/09/10 03:25:00;;;;;;;4.93;3.45;;;;;;;;;;2383042;56;21022;-81
2022/09/10 03:27:27;;;;;;;4.70;3.20;;;;;;;;;;2382927;56;21026;-80
2022/09/10 03:29:54;;;;;;;5.80;2.72;;;;;;;;;;2383219;56;21034;-80
2022/09/10 03:32:21;;;;;;;3.78;3.15;;;;;;;;;;2638245;52;21086;-81
2022/09/10 03:34:48;;;;;;;2.87;2.42;;;;;;;;;;2383292;56;21089;-81
2022/09/10 03:37:16;;;;;;;3.40;2.92;;;;;;;;;;2382737;56;21177;-81
2022/09/10 03:39:43;;;;;;;4.30;3.80;;;;;;;;;;2383120;56;21042;-82
2022/09/10 03:42:11;;;;;;;5.60;3.45;;;;;;;;;;2383159;56;21073;-80
2022/09/10 03:44:38;;;;;;;3.78;2.92;;;;;;;;;;2638274;52;21027;-82
2022/09/10 03:47:05;;;;;;;7.32;3.95;;;;;;;;;;2382752;56;21082;-81
2022/09/10 03:49:32;;;;;;;4.20;3.33;;;;;;;;;;2638507;52;21094;-81
2022/09/10 03:51:59;;;;;;;2.65;2.37;;;;;;;;;;2638253;52;21090;-82
2022/09/10 03:54:26;;;;;;;7.10;3.42;;;;;;;;;;2638352;52;21086;-81
2022/09/10 03:56:53;;;;;;;6.97;3.05;;;;;;;;;;2382619;56;21021;-80
2022/09/10 03:59:20;;;;;;;5.75;3.75;;;;;;;;;;2383269;56;21034;-81
2022/09/10 04:01:47;;;;;;;2.78;2.58;;;;;;;;;;2638256;52;21091;-82
2022/09/10 04:04:14;;;;;;;8.57;2.97;;;;;;;;;;2383322;56;21106;-82
2022/09/10 04:06:43;;;;;;;8.23;3.42;;;;;;;;;;2637954;52;21069;-82
2022/09/10 04:09:10;;;;;;;5.03;3.72;;;;;;;;;;2638291;52;21022;-81
2022/09/10 04:11:38;;;;;;;4.65;4.10;;;;;;;;;;2383194;56;21495;-81
2022/09/10 04:14:05;;;;;;;3.50;3.17;;;;;;;;;;2638422;52;21005;-82
2022/09/10 04:16:32;;;;;;;4.93;3.33;;;;;;;;;;2382540;56;21051;-80
2022/09/10 04:18:59;;;;;;;4.68;3.30;;;;;;;;;;2382531;56;21034;-82
2022/09/10 04:21:26;;;;;;;3.87;2.80;;;;;;;;;;2382645;56;21094;-80
2022/09/10 04:23:58;;;;;;;4.03;3.50;;;;;;;;;;2382660;56;21058;-80
2022/09/10 04:26:25;;;;;;;4.05;3.62;;;;;;;;;;2637114;52;21031;-80
2022/09/10 04:28:52;;;;;;;3.65;3.35;;;;;;;;;;2382502;56;21078;-81
2022/09/10 04:31:19;;;;;;;7.07;3.40;;;;;;;;;;2382610;56;21530;-80
2022/09/10 04:33:46;;;;;;;5.37;3.50;;;;;;;;;;2382643;56;21102;-80
2022/09/10 04:36:13;;;;;;;4.18;2.72;;;;;;;;;;2637070;52;21026;-80
2022/09/10 04:38:40;;;;;;;4.82;3.70;;;;;;;;;;2382479;56;21570;-82
2022/09/10 04:41:08;;;;;;;3.83;3.42;;;;;;;;;;2382629;56;21022;-80
2022/09/10 04:43:35;;;;;;;4.47;3.42;;;;;;;;;;2637407;52;21557;-80
2022/09/10 04:46:02;;;;;;;6.12;3.60;;;;;;;;;;2382239;56;21050;-80
2022/09/10 04:48:29;;;;;;;3.83;2.80;;;;;;;;;;2382554;56;21042;-81
2022/09/10 04:50:56;;;;;;;3.15;2.78;;;;;;;;;;2637513;52;21018;-80
2022/09/10 04:53:24;;;;;;;4.05;2.87;;;;;;;;;;2637496;52;21018;-80
2022/09/10 04:55:51;;;;;;;5.30;2.92;;;;;;;;;;2382224;56;21098;-80
2022/09/10 04:58:18;;;;;;;4.95;3.53;;;;;;;;;;2637366;52;21072;-79
2022/09/10 05:00:45;;;;;;;4.70;3.42;;;;;;;;;;2382404;56;21085;-80
2022/09/10 05:03:13;;;;;;;5.15;3.30;;;;;;;;;;2382272;56;21023;-80
2022/09/10 05:05:41;;;;;;;3.05;2.75;;;;;;;;;;2637067;52;21015;-82
2022/09/10 05:08:08;;;;;;;3.53;2.80;;;;;;;;;;2382322;56;21026;-82
2022/09/10 05:10:37;;;;;;;6.43;3.08;;;;;;;;;;2382193;56;21009;-80
2022/09/10 05:13:04;;;;;;;4.62;3.03;;;;;;;;;;2382489;56;21042;-80
2022/09/10 05:15:30;;;;;;;4.35;2.87;;;;;;;;;;2637239;52;21510;-80
2022/09/10 05:17:58;;;;;;;5.85;3.70;;;;;;;;;;2382463;56;21026;-80
2022/09/10 05:20:26;;;;;;;5.47;4.03;;;;;;;;;;2382712;56;21030;-82
2022/09/10 05:22:53;;;;;;;4.50;3.08;;;;;;;;;;2383065;56;21173;-83
2022/09/10 05:25:20;;;;;;;5.10;3.47;;;;;;;;;;2383035;56;21026;-82
2022/09/10 05:27:48;;;;;;;4.10;3.62;;;;;;;;;;2638498;52;21026;-83
2022/09/10 05:30:16;;;;;;;5.10;3.72;;;;;;;;;;2383246;56;21121;-81
2022/09/10 05:32:42;;;;;;;4.05;2.97;;;;;;;;;;2383427;56;21093;-81
2022/09/10 05:35:10;;;;;;;2.97;2.67;;;;;;;;;;2383069;56;21559;-81
2022/09/10 05:37:37;;;;;;;3.03;2.72;;;;;;;;;;2382862;56;21562;-82
2022/09/10 05:40:05;;;;;;;3.87;3.25;;;;;;;;;;2638401;52;21417;-81
2022/09/10 05:42:32;;;;;;;5.75;3.40;;;;;;;;;;2383467;56;21098;-81
2022/09/10 05:44:59;;;;;;;3.95;3.55;;;;;;;;;;2383039;56;21038;-81
2022/09/10 05:47:27;;;;;;;3.30;3.00;;;;;;;;;;2383174;56;21104;-81
2022/09/10 05:49:55;;;;;;;5.18;3.22;;;;;;;;;;2383130;56;21093;-81
2022/09/10 05:52:23;;;;;;;5.30;3.22;;;;;;;;;;2383462;56;21522;-81
2022/09/10 05:54:50;;;;;;;5.95;3.08;;;;;;;;;;2638368;52;21030;-82
2022/09/10 05:57:17;;;;;;;4.43;3.03;;;;;;;;;;2382863;56;21114;-83
2022/09/10 05:59:45;;;;;;;6.35;3.95;;;;;;;;;;2638387;52;21133;-82
2022/09/10 06:02:15;;;;;;;3.28;2.87;;;;;;;;;;2383305;56;21086;-82
2022/09/10 06:04:42;;;;;;;4.03;3.15;;;;;;;;;;2638412;52;21038;-82
2022/09/10 06:07:09;;;;;;;3.62;2.80;;;;;;;;;;2638071;52;21042;-82
2022/09/10 06:09:36;;;;;;;6.95;3.10;;;;;;;;;;2383195;56;21613;-82
2022/09/10 06:12:05;;;;;;;3.50;2.75;;;;;;;;;;2638363;52;21106;-82
2022/09/10 06:14:32;;;;;;;3.62;3.05;;;;;;;;;;2383255;56;21503;-81
2022/09/10 06:16:59;;;;;;;5.05;3.03;;;;;;;;;;2382939;56;21029;-81
2022/09/10 06:19:26;;;;;;;3.45;2.92;;;;;;;;;;2383230;56;21030;-80
2022/09/10 06:21:53;;;;;;;5.68;3.20;;;;;;;;;;2638316;52;21030;-83
2022/09/10 06:24:21;;;;;;;4.87;2.80;;;;;;;;;;2383200;56;21134;-82
2022/09/10 06:26:49;;;;;;;4.45;2.80;;;;;;;;;;2637922;52;21034;-82
2022/09/10 06:29:17;;;;;;;4.57;2.95;;;;;;;;;;2383124;56;21026;-82
2022/09/10 06:31:44;;;;;;;4.53;3.17;;;;;;;;;;2638327;52;21098;-81
2022/09/10 06:34:11;;;;;;;12.48;3.28;;;;;;;;;;2383259;56;21022;-82
2022/09/10 06:36:38;;;;;;;7.32;2.80;;;;;;;;;;2382571;56;21585;-80
2022/09/10 06:39:06;;;;;;;3.22;2.70;;;;;;;;;;2637664;52;21082;-80
2022/09/10 06:41:33;;;;;;;3.58;2.80;;;;;;;;;;2382775;56;21089;-81
2022/09/10 06:44:00;;;;;;;5.25;3.53;;;;;;;;;;2382918;56;21133;-80
2022/09/10 06:46:27;;;;;;;4.45;3.10;;;;;;;;;;2382482;56;21038;-80
2022/09/10 06:48:59;;;;;;;5.32;3.40;;;;;;;;;;2637785;52;21038;-80
2022/09/10 06:51:26;;;;;;;3.20;2.80;;;;;;;;;;2382727;56;21026;-81
2022/09/10 06:53:53;;;;;;;3.45;2.83;;;;;;;;;;2382882;56;21069;-81
2022/09/10 06:56:20;;;;;;;3.35;2.87;;;;;;;;;;2637168;52;21081;-78
2022/09/10 06:58:47;;;;;;;5.53;3.03;;;;;;;;;;2382646;56;21519;-82
2022/09/10 07:01:16;;;;;;;4.65;3.33;;;;;;;;;;2637568;52;21014;-80
2022/09/10 07:03:43;;;;;;;6.25;3.50;;;;;;;;;;2382740;56;21023;-80
2022/09/10 07:06:12;;;;;;;4.62;2.90;;;;;;;;;;2382081;56;21010;-80
2022/09/10 07:08:39;;;;;;;5.07;2.95;;;;;;;;;;2637654;52;21030;-80
2022/09/10 07:11:11;;;;;;;3.37;2.90;;;;;;;;;;2382510;56;21578;-82
2022/09/10 07:13:38;;;;;;;3.90;3.30;;;;;;;;;;2382773;56;21487;-82
2022/09/10 07:16:06;;;;;;;4.90;2.65;;;;;;;;;;2382484;56;21101;-80
2022/09/10 07:18:33;;;;;;;6.18;3.67;;;;;;;;;;2382707;56;21110;-80
2022/09/10 07:21:07;;;;;;;3.58;2.80;;;;;;;;;;2382980;56;21495;-81
2022/09/10 07:23:34;;;;;;;5.57;3.20;;;;;;;;;;2382587;56;21078;-80
2022/09/10 07:26:03;;;;;;;3.55;2.78;;;;;;;;;;2637050;52;21019;-82
2022/09/10 07:28:31;;;;;;;3.45;2.87;;;;;;;;;;2382554;56;21074;-80
2022/09/10 07:30:58;;;;;;;5.25;3.03;;;;;;;;;;2382673;56;21034;-81
2022/09/10 07:33:25;;;;;;;4.12;2.92;;;;;;;;;;2382399;56;21026;-80
2022/09/10 07:35:52;;;;;;;4.45;2.50;;;;;;;;;;2382273;56;21057;-81
2022/09/10 07:38:19;;;;;;;4.28;3.22;;;;;;;;;;2382412;56;21026;-80
2022/09/10 07:40:47;;;;;;;5.35;2.90;;;;;;;;;;2382691;56;21014;-81
2022/09/10 07:43:14;;;;;;;6.65;3.03;;;;;;;;;;2382549;56;21583;-80
2022/09/10 07:45:41;;;;;;;3.40;2.85;;;;;;;;;;2381982;56;21101;-80
2022/09/10 07:48:08;;;;;;;4.45;2.87;;;;;;;;;;2637374;52;21022;-80
2022/09/10 07:50:35;;;;;;;3.92;2.85;;;;;;;;;;2382506;56;21034;-82
2022/09/10 07:53:02;;;;;;;4.53;2.80;;;;;;;;;;2382474;56;21086;-80
2022/09/10 07:55:30;;;;;;;4.05;3.00;;;;;;;;;;2636953;52;21492;-80
2022/09/10 07:57:57;;;;;;;4.15;3.22;;;;;;;;;;2383054;56;21030;-81
2022/09/10 08:00:24;;;;;;;4.80;3.30;;;;;;;;;;2383086;56;21034;-82
2022/09/10 08:02:51;;;;;;;4.47;2.65;;;;;;;;;;2638356;52;21026;-80
2022/09/10 08:05:18;;;;;;;3.15;2.65;;;;;;;;;;2382904;56;21034;-82
2022/09/10 08:07:45;;;;;;;4.15;2.80;;;;;;;;;;2383349;56;21026;-82
2022/09/10 08:10:12;;;;;;;4.60;2.92;;;;;;;;;;2383097;56;21058;-81
2022/09/10 08:12:40;;;;;;;6.60;3.30;;;;;;;;;;2383265;56;21025;-83
2022/09/10 08:15:08;;;;;;;3.30;2.62;;;;;;;;;;2383087;56;21026;-81
2022/09/10 08:17:35;;;;;;;5.50;2.78;;;;;;;;;;2383036;56;21093;-82
2022/09/10 08:20:04;;;;;;;5.80;3.72;;;;;;;;;;2383379;56;21093;-82
2022/09/10 08:22:33;;;;;;;5.18;3.40;;;;;;;;;;2383232;56;21069;-82
2022/09/10 08:25:00;;;;;;;10.32;4.00;;;;;;;;;;2383164;56;21034;-82
2022/09/10 08:27:27;;;;;;;5.30;3.85;;;;;;;;;;2638147;52;21058;-81
2022/09/10 08:29:55;;;;;;;6.28;3.97;;;;;;;;;;2383294;56;21018;-82
2022/09/10 08:32:22;;;;;;;5.65;3.90;;;;;;;;;;2383534;56;21558;-83
2022/09/10 08:34:50;;;;;;;6.90;4.37;;;;;;;;;;2383400;56;21081;-81
2022/09/10 08:37:17;;;;;;;3.72;3.20;;;;;;;;;;2383089;56;21019;-81
2022/09/10 08:39:44;;;;;;;6.40;4.20;;;;;;;;;;2638282;52;21075;-82
2022/09/10 08:42:15;;;;;;;7.00;4.90;;;;;;;;;;2383462;56;21026;-82
2022/09/10 08:44:48;;;;;;;8.20;4.55;;;;;;;;;;2383340;56;21487;-82
2022/09/10 08:47:21;;;;;;;7.37;4.55;;;;;;;;;;2638458;52;21524;-82
2022/09/10 08:49:50;;;;;;;5.57;4.32;;;;;;;;;;2383605;56;21510;-80
2022/09/10 08:52:20;;;;;;;5.57;3.85;;;;;;;;;;2383307;56;21030;-82
2022/09/10 08:54:52;;;;;;;5.10;4.35;;;;;;;;;;2638674;52;21022;-82
2022/09/10 08:57:23;;;;;;;8.73;4.20;;;;;;;;;;2638165;52;21507;-82
2022/09/10 08:59:51;;;;;;;6.40;4.40;;;;;;;;;;2383453;56;21125;-82
2022/09/10 09:02:19;;;;;;;7.05;5.60;;;;;;;;;;2383590;56;21560;-83
2022/09/10 09:04:50;;;;;;;7.28;4.95;;;;;;;;;;2383265;56;21526;-81
2022/09/10 09:07:19;;;;;;;7.28;5.28;;;;;;;;;;2383194;56;21082;-81
2022/09/10 09:09:48;;;;;;;8.88;5.07;;;;;;;;;;2382984;56;21530;-81
2022/09/10 09:12:19;;;;;;;8.02;5.32;;;;;;;;;;2383013;56;21527;-81
2022/09/10 09:14:52;;;;;;;6.55;4.32;;;;;;;;;;2382995;56;21085;-80
2022/09/10 09:17:24;;;;;;;7.78;5.28;;;;;;;;;;2382834;56;21112;-81
2022/09/10 09:19:56;;;;;;;5.70;4.90;;;;;;;;;;2638140;52;21090;-80
2022/09/10 09:22:26;;;;;;;6.53;5.53;;;;;;;;;;2383053;56;21079;-80
2022/09/10 09:24:56;;;;;;;8.18;5.90;;;;;;;;;;2637802;52;21101;-80
2022/09/10 09:27:26;;;;;;;7.12;6.18;;;;;;;;;;2382945;56;21026;-80
2022/09/10 09:29:56;;;;;;;7.20;5.95;;;;;;;;;;2637826;52;21511;-80
2022/09/10 09:32:23;;;;;;;10.68;6.57;;;;;;;;;;2382923;56;21102;-81
2022/09/10 09:34:53;;;;;;;7.80;6.40;;;;;;;;;;2382788;56;21026;-80
2022/09/10 09:37:22;;;;;;;8.60;7.50;;;;;;;;;;2382638;56;21125;-81
2022/09/10 09:39:57;;;;;;;8.05;6.95;;;;;;;;;;2638134;52;21018;-80
2022/09/10 09:42:28;;;;;;;7.97;7.18;;;;;;;;;;2383063;55;21103;-80
2022/09/10 09:44:59;;;;;;;9.70;7.25;;;;;;;;;;2382955;56;21098;-80
2022/09/10 09:47:26;;;;;;;7.90;7.00;;;;;;;;;;2637651;52;21085;-80
2022/09/10 09:49:53;;;;;;;9.95;7.60;;;;;;;;;;2637715;52;21030;-81
2022/09/10 09:52:21;;;;;;;8.25;7.20;;;;;;;;;;2638011;52;21515;-80
2022/09/10 09:54:50;;;;;;;7.90;7.10;;;;;;;;;;2637882;52;21502;-78
2022/09/10 09:57:19;;;;;;;8.65;6.25;;;;;;;;;;2382639;56;21026;-80
2022/09/10 09:59:47;;;;;;;7.43;6.75;;;;;;;;;;2637871;52;21582;-78
2022/09/10 10:02:15;;;;;;;12.50;8.35;;;;;;;;;;2637891;52;21523;-82
2022/09/10 10:04:46;;;;;;;9.02;7.65;;;;;;;;;;2382821;56;21034;-82
2022/09/10 10:07:13;;;;;;;8.00;6.85;;;;;;;;;;2382839;56;21093;-81
2022/09/10 10:09:42;;;;;;;13.82;12.35;;;;;;;;;;2637575;52;21037;-83
2022/09/10 10:12:18;;;;;;;12.75;11.45;;;;;;;;;;2383048;56;21023;-84
2022/09/10 10:14:45;;;;;;;11.95;10.52;;;;;;;;;;2382982;56;21027;-82
2022/09/10 10:17:22;;;;;;;12.93;9.23;;;;;;;;;;2382354;56;21066;-79
2022/09/10 10:19:57;;;;;;;12.27;11.07;;;;;;;;;;2382410;56;21030;-78
2022/09/10 10:22:25;;;;;;;13.52;11.93;;;;;;;;;;2382652;56;21467;-80
2022/09/10 10:24:53;;;;;;;13.75;11.55;;;;;;;;;;2637321;52;21070;-80
2022/09/10 10:27:23;;;;;;;14.23;12.68;;;;;;;;;;2382259;56;21014;-80
2022/09/10 10:29:55;;;;;;;14.43;12.37;;;;;;;;;;2637710;52;21038;-80
2022/09/10 10:32:24;;;;;;;13.00;11.80;;;;;;;;;;2382530;56;21026;-80
2022/09/10 10:34:55;;;;;;;14.60;13.20;;;;;;;;;;2637394;52;21151;-80
2022/09/10 10:37:26;;;;;;;15.25;13.65;;;;;;;;;;2637053;52;21081;-80
2022/09/10 10:40:02;;;;;;;13.60;12.20;;;;;;;;;;2382481;56;21597;-80
2022/09/10 10:42:32;;;;;;;14.25;12.80;;;;;;;;;;2382477;56;21022;-80
2022/09/10 10:45:03;;;;;;;16.05;14.02;;;;;;;;;;2637463;52;21081;-81
2022/09/10 10:47:34;;;;;;;16.37;14.80;;;;;;;;;;2382999;56;21038;-80
2022/09/10 10:50:05;;;;;;;12.73;11.43;;;;;;;;;;2382997;56;21034;-80
2022/09/10 10:52:37;;;;;;;12.45;11.18;;;;;;;;;;2383142;56;21028;-82
2022/09/10 10:55:11;;;;;;;15.73;11.85;;;;;;;;;;2383094;56;21117;-82
2022/09/10 10:57:52;;;;;;;11.57;10.50;;;;;;;;;;2382698;56;21026;-81
2022/09/10 11:00:19;;;;;;;14.63;10.95;;;;;;;;;;2382982;56;21086;-80
2022/09/10 11:02:49;;;;;;;11.57;10.32;;;;;;;;;;2383096;56;21567;-82
2022/09/10 11:05:22;;;;;;;9.05;8.23;;;;;;;;;;2638060;52;21078;-81
2022/09/10 11:07:49;;;;;;;11.48;9.35;;;;;;;;;;2383380;56;21038;-81
2022/09/10 11:10:20;;;;;;;8.85;7.97;;;;;;;;;;2382986;56;21042;-82
2022/09/10 11:12:50;;;;;;;8.82;7.37;;;;;;;;;;2638312;52;21085;-82
2022/09/10 11:15:21;;;;;;;8.82;6.55;;;;;;;;;;2382962;56;21031;-78
2022/09/10 11:17:50;;;;;;;11.23;7.32;;;;;;;;;;2383114;56;21631;-81
2022/09/10 11:20:22;;;;;;;7.55;6.50;;;;;;;;;;2383190;56;21062;-81
2022/09/10 11:22:51;;;;;;;11.07;7.85;;;;;;;;;;2383136;56;21571;-82
2022/09/10 11:25:22;;;;;;;7.87;6.87;;;;;;;;;;2637862;52;21031;-81
2022/09/10 11:27:51;;;;;;;7.85;6.22;;;;;;;;;;2383258;56;21121;-83
2022/09/10 11:30:19;;;;;;;7.30;6.55;;;;;;;;;;2383164;56;21156;-82
2022/09/10 11:32:50;;;;;;;8.20;7.00;;;;;;;;;;2383321;56;21038;-81
2022/09/10 11:35:21;;;;;;;7.57;6.60;;;;;;;;;;2383043;56;21093;-80
2022/09/10 11:37:52;;;;;;;6.43;5.72;;;;;;;;;;2638404;52;21034;-82
2022/09/10 11:40:23;;;;;;;6.50;4.95;;;;;;;;;;2383267;56;21030;-81
2022/09/10 11:42:52;;;;;;;8.95;6.90;;;;;;;;;;2383357;56;21145;-81
2022/09/10 11:45:23;;;;;;;9.35;6.75;;;;;;;;;;2637842;52;21030;-79
2022/09/10 11:47:55;;;;;;;6.97;5.72;;;;;;;;;;2383071;56;21570;-81
2022/09/10 11:50:28;;;;;;;6.95;5.20;;;;;;;;;;2638304;52;21024;-81
2022/09/10 11:52:57;;;;;;;6.65;4.85;;;;;;;;;;2383463;56;21042;-82
2022/09/10 11:55:27;;;;;;;9.65;5.72;;;;;;;;;;2382886;56;21570;-82
2022/09/10 11:58:00;;;;;;;6.68;4.80;;;;;;;;;;2383201;56;21027;-82
2022/09/10 12:00:29;;;;;;;6.40;4.97;;;;;;;;;;2638508;52;21022;-81
2022/09/10 12:03:14;;;;;;;7.10;4.30;;;;;;;;;;2383086;56;21030;-81
2022/09/10 12:05:47;;;;;;;6.15;5.28;;;;;;;;;;2382858;56;21042;-82
2022/09/10 12:08:19;;;;;;;6.97;4.65;;;;;;;;;;2383387;56;21102;-82
2022/09/10 12:10:52;;;;;;;4.47;3.87;;;;;;;;;;2638447;51;21077;-82
2022/09/10 12:13:19;;;;;;;6.30;4.10;;;;;;;;;;2638741;52;21030;-81
2022/09/10 12:15:50;;;;;;;4.93;3.78;;;;;;;;;;2637957;52;21061;-81
2022/09/10 12:18:20;;;;;;;4.65;3.33;;;;;;;;;;2638458;52;21074;-82
2022/09/10 12:20:49;;;;;;;4.53;3.70;;;;;;;;;;2383365;56;21034;-80
2022/09/10 12:23:17;;;;;;;4.75;4.25;;;;;;;;;;2383154;56;21085;-82
2022/09/10 12:25:44;;;;;;;3.47;3.17;;;;;;;;;;2382736;56;21523;-82
2022/09/10 12:28:31;;;;;;;6.15;3.80;;;;;;;;;;2638033;52;21026;-82
2022/09/10 12:30:59;;;;;;;5.60;3.83;;;;;;;;;;2383116;56;21030;-82
2022/09/10 12:33:56;;;;;;;4.57;3.42;;;;;;;;;;2638270;52;21101;-81
2022/09/10 12:36:41;;;;;;;4.07;3.60;;;;;;;;;;2613864;52;21023;-81
2022/09/10 12:39:21;;;;;;;4.90;3.40;;;;;;;;;;2638365;52;21547;-81
2022/09/10 12:41:58;;;;;;;7.75;3.90;;;;;;;;;;2383031;56;21550;-81
2022/09/10 12:44:44;;;;;;;5.00;3.80;;;;;;;;;;2383100;56;21066;-81
2022/09/10 12:47:38;;;;;;;7.47;3.83;;;;;;;;;;2637715;52;21054;-81
2022/09/10 12:50:05;;;;;;;;;;;;;;;;;;2642205;52;21495;-82
2022/09/10 12:52:40;;;;;;;8.38;4.93;;;;;;;;;;2638167;52;20069;-82
2022/09/10 12:55:14;;;;;;;5.85;3.72;;;;;;;;;;2637917;52;21070;-82
2022/09/10 12:57:40;;;;;;;;;;;;;;;;;;2386451;56;21503;-81
2022/09/10 13:00:12;;;;;;;4.15;3.28;;;;;;;;;;2638059;52;20089;-82
2022/09/10 13:02:42;;;;;;;6.70;3.47;;;;;;;;;;2383135;56;21015;-81
2022/09/10 13:05:19;;;;;;;5.20;3.40;;;;;;;;;;2383103;56;21044;-80
2022/09/10 13:07:48;;;;;;;5.30;3.12;;;;;;;;;;2383286;56;21030;-80
2022/09/10 13:10:17;;;;;;;3.85;3.30;;;;;;;;;;2383004;56;21035;-80
2022/09/10 13:12:45;;;;;;;4.85;3.65;;;;;;;;;;2383275;56;21582;-82
2022/09/10 13:15:19;;;;;;;3.95;3.35;;;;;;;;;;2382902;56;21030;-81
2022/09/10 13:18:05;;;;;;;2.87;2.50;;;;;;;;;;2382927;56;21030;-81
2022/09/10 13:20:34;;;;;;;3.15;2.53;;;;;;;;;;2382908;56;21570;-80
2022/09/10 13:23:02;;;;;;;5.10;2.67;;;;;;;;;;2554197;53;21032;-85
2022/09/10 13:25:49;;;;;;;5.32;2.72;;;;;;;;;;2604473;52;21037;-85
2022/09/10 13:28:33;;;;;;;2.90;2.70;;;;;;;;;;2356057;57;21611;-84
2022/09/10 13:31:00;;;;;;;3.25;2.95;;;;;;;;;;2356267;57;21116;-84
2022/09/10 13:33:29;;;;;;;3.45;3.10;;;;;;;;;;2328879;58;21035;-84
2022/09/10 13:36:09;;;;;;;3.45;3.10;;;;;;;;;;2571767;53;21039;-85
2022/09/10 13:39:04;;;;;;;3.55;2.72;;;;;;;;;;2329215;58;21047;-84
2022/09/10 13:41:46;;;;;;;4.45;3.42;;;;;;;;;;2329248;58;21090;-84
2022/09/10 13:44:25;;;;;;;4.45;3.47;;;;;;;;;;2329112;58;21046;-85
2022/09/10 13:46:53;;;;;;;4.32;3.17;;;;;;;;;;2329201;58;21035;-84
2022/09/10 13:49:27;;;;;;;5.20;3.28;;;;;;;;;;2329648;58;21173;-84
2022/09/10 13:51:53;;;;;;;;;;;;;;;;;;2576078;53;21039;-85
2022/09/10 13:54:31;;;;;;;4.70;3.25;;;;;;;;;;2329308;58;20111;-84
2022/09/10 13:57:02;;;;;;;3.58;3.28;;;;;;;;;;2329256;58;21027;-84
2022/09/10 13:59:30;;;;;;;4.03;3.00;;;;;;;;;;2572248;54;21106;-84
2022/09/10 14:01:58;;;;;;;3.28;2.85;;;;;;;;;;2329406;58;21050;-85
2022/09/10 14:04:26;;;;;;;5.47;3.20;;;;;;;;;;2571913;53;21043;-85
2022/09/10 14:06:54;;;;;;;5.95;2.95;;;;;;;;;;2571450;53;21094;-85
2022/09/10 14:09:22;;;;;;;2.92;2.60;;;;;;;;;;2329231;58;21098;-84
2022/09/10 14:11:49;;;;;;;2.58;2.37;;;;;;;;;;2329133;58;21038;-84
2022/09/10 14:14:18;;;;;;;3.70;3.20;;;;;;;;;;2572014;53;21054;-84
2022/09/10 14:16:47;;;;;;;4.25;3.40;;;;;;;;;;2571409;53;21122;-85
2022/09/10 14:19:16;;;;;;;5.43;3.28;;;;;;;;;;2329447;58;21098;-84
2022/09/10 14:21:47;;;;;;;2.90;2.60;;;;;;;;;;2571947;53;21582;-84
2022/09/10 14:24:26;;;;;;;2.42;2.22;;;;;;;;;;2572164;54;21511;-84
2022/09/10 14:27:05;;;;;;;2.97;2.20;;;;;;;;;;2571670;54;21035;-84
2022/09/10 14:29:32;;;;;;;2.20;2.00;;;;;;;;;;2329390;58;21035;-85
2022/09/10 14:32:15;;;;;;;3.97;2.00;;;;;;;;;;2329391;58;21055;-85
2022/09/10 14:34:42;;;;;;;2.10;1.92;;;;;;;;;;2572246;54;21046;-85
2022/09/10 14:37:25;;;;;;;2.58;2.00;;;;;;;;;;2329287;58;21027;-85
2022/09/10 14:39:52;;;;;;;3.30;2.20;;;;;;;;;;2571755;54;21138;-84
2022/09/10 14:42:26;;;;;;;4.32;3.33;;;;;;;;;;2572136;53;21579;-84
2022/09/10 14:44:53;;;;;;;4.30;2.92;;;;;;;;;;2572344;54;21480;-85
2022/09/10 14:47:50;;;;;;;8.35;4.57;;;;;;;;;;2571688;53;21833;-84
2022/09/10 14:50:29;;;;;;;5.57;4.07;;;;;;;;;;2572212;53;21046;-85
2022/09/10 14:52:57;;;;;;;10.65;6.72;;;;;;;;;;2329465;58;21046;-84
2022/09/10 14:55:25;;;;;;;8.30;7.07;;;;;;;;;;2571865;54;21071;-83
2022/09/10 14:57:54;;;;;;;10.52;6.72;;;;;;;;;;2329548;58;21043;-83